Terminal Aerodrome Forecast
Issued by NWS

Home | Current Version | Previous Version | Text Only | Print | Product List | Glossary On
Versions: 1 2 3 4 5 6 7 8 9 10 11 12 13 14 15 16 17 18 19 20 21
000
FTUS43 KIND 191123
TAFBMG
TAF
KBMG 191123Z 1912/2012 VRB03KT 2SM BR OVC003
     FM191600 23004KT P6SM OVC008
     FM191800 22004KT P6SM BKN015
     FM191900 22004KT P6SM BKN025
     FM192000 23004KT P6SM SCT035
     FM200600 VRB03KT 4SM BR SCT040
     FM200900 VRB03KT 3SM BR BKN015
      AMD LTD TO CLD VIS AND WIND TIL 191400=

USA.gov is the U.S. government's official web portal to all federal, state and local government web resources and services.